Time;durP1;ratioP1;P1;durP2;ratioP2;P2;SDS_P1;SDS_P2;PMS_P1;PMS_P2;Temp;Humidity;BMP_temperature;BMP_pressure;BME280_temperature;BME280_humidity;BME280_pressure;Samples;Min_cycle;Max_cycle;Signal;HPM_P1;HPM_P2
2023/06/21 00:00:30;;;;;;;29.40;27.00;;;21.80;99.90;;;;;;5050217;28;20429;-47
2023/06/21 00:03:00;;;;;;;27.87;25.47;;;21.80;99.90;;;;;;5068256;28;20465;-45
2023/06/21 00:05:26;;;;;;;28.73;26.43;;;21.80;99.90;;;;;;5068045;28;20247;-44
2023/06/21 00:07:54;;;;;;;28.40;26.00;;;21.90;99.90;;;;;;5050205;28;20585;-46
2023/06/21 00:10:23;;;;;;;28.23;25.93;;;21.90;99.90;;;;;;5067971;28;20412;-45
2023/06/21 00:12:52;;;;;;;28.10;25.87;;;21.90;99.90;;;;;;5068289;28;20498;-45
2023/06/21 00:15:18;;;;;;;28.67;26.37;;;22.00;99.90;;;;;;5068431;28;20424;-45
2023/06/21 00:17:44;;;;;;;30.07;27.40;;;22.00;99.90;;;;;;5068188;28;20430;-46
2023/06/21 00:20:10;;;;;;;27.83;25.63;;;22.00;99.90;;;;;;5068214;28;20901;-46
2023/06/21 00:22:37;;;;;;;28.50;26.10;;;22.10;99.90;;;;;;5067926;28;20185;-44
2023/06/21 00:25:03;;;;;;;29.77;27.37;;;22.10;99.90;;;;;;5068142;28;20905;-46
2023/06/21 00:27:29;;;;;;;28.13;25.83;;;22.20;99.90;;;;;;5050032;28;20485;-45
2023/06/21 00:29:54;;;;;;;28.13;25.93;;;22.20;99.90;;;;;;5068319;28;20465;-42
2023/06/21 00:32:20;;;;;;;28.53;26.23;;;22.30;99.90;;;;;;5067948;28;20410;-43
2023/06/21 00:34:47;;;;;;;28.87;26.57;;;22.30;99.90;;;;;;5068021;28;20189;-44
2023/06/21 00:37:13;;;;;;;28.07;25.90;;;22.40;99.90;;;;;;5068008;28;20558;-48
2023/06/21 00:39:39;;;;;;;27.47;25.37;;;22.40;99.90;;;;;;5068069;28;20740;-45
2023/06/21 00:42:08;;;;;;;29.27;26.97;;;22.40;99.90;;;;;;5067889;28;20431;-45
2023/06/21 00:44:34;;;;;;;27.80;25.60;;;22.40;99.90;;;;;;5050155;28;20209;-48
2023/06/21 00:47:00;;;;;;;28.17;25.80;;;22.40;99.90;;;;;;5071737;28;20414;-47
2023/06/21 00:49:27;;;;;;;27.27;25.00;;;22.40;99.90;;;;;;5071856;28;20434;-46
2023/06/21 00:51:57;;;;;;;27.37;25.33;;;22.50;99.90;;;;;;5071449;28;20418;-46
2023/06/21 00:54:26;;;;;;;27.63;25.53;;;22.50;99.90;;;;;;5071875;28;20425;-50
2023/06/21 00:56:53;;;;;;;28.17;26.00;;;22.60;99.90;;;;;;5071397;28;20426;-45
2023/06/21 00:59:19;;;;;;;28.60;26.20;;;22.50;99.90;;;;;;5071614;28;20492;-50
2023/06/21 01:01:45;;;;;;;28.83;26.63;;;22.60;99.90;;;;;;5071331;28;21119;-46
2023/06/21 01:04:12;;;;;;;29.90;27.50;;;22.60;99.90;;;;;;5071442;28;20497;-49
2023/06/21 01:07:04;;;;;;;29.13;26.83;;;22.60;99.90;;;;;;5070971;28;20467;-48
2023/06/21 01:10:01;;;;;;;28.40;26.20;;;22.50;99.90;;;;;;5071443;28;20430;-49
2023/06/21 01:12:55;;;;;;;28.60;26.30;;;22.50;99.90;;;;;;5071475;28;20421;-48
2023/06/21 01:15:29;;;;;;;28.90;26.50;;;22.50;99.90;;;;;;5053351;28;20470;-49
2023/06/21 01:17:59;;;;;;;30.53;27.93;;;22.40;99.90;;;;;;5071101;28;20438;-48
2023/06/21 01:20:30;;;;;;;29.97;27.53;;;22.40;99.90;;;;;;5071157;28;20560;-47
2023/06/21 01:23:29;;;;;;;30.97;28.47;;;22.40;99.90;;;;;;5071014;28;20462;-46
2023/06/21 01:26:23;;;;;;;29.90;27.43;;;22.30;99.90;;;;;;5070955;28;20526;-43
2023/06/21 01:29:00;;;;;;;28.30;26.00;;;22.30;99.90;;;;;;5070905;28;20498;-49
2023/06/21 01:31:27;;;;;;;29.70;27.30;;;22.30;99.90;;;;;;5058073;28;20430;-50
2023/06/21 01:33:54;;;;;;;29.17;26.67;;;22.20;99.90;;;;;;5070779;28;20462;-52
2023/06/21 01:36:22;;;;;;;28.73;26.50;;;22.20;99.90;;;;;;5070708;28;20419;-46
2023/06/21 01:38:49;;;;;;;30.53;28.03;;;22.20;99.90;;;;;;5070569;28;20496;-50
2023/06/21 01:41:15;;;;;;;30.93;28.33;;;22.20;99.90;;;;;;5052598;28;20447;-47
2023/06/21 01:43:41;;;;;;;30.80;27.70;;;22.20;99.90;;;;;;5070862;28;20477;-51
2023/06/21 01:46:08;;;;;;;29.90;27.40;;;22.20;99.90;;;;;;5070566;28;20657;-50
2023/06/21 01:48:35;;;;;;;30.07;27.37;;;22.10;99.90;;;;;;5070613;28;20540;-49
2023/06/21 01:51:03;;;;;;;29.30;26.70;;;22.00;99.90;;;;;;5070504;28;20454;-49
2023/06/21 01:53:32;;;;;;;30.30;27.90;;;22.00;99.90;;;;;;5070447;28;20824;-47
2023/06/21 01:55:59;;;;;;;28.10;25.90;;;22.00;99.90;;;;;;5069829;28;20867;-48
2023/06/21 01:58:25;;;;;;;27.87;25.57;;;22.00;99.90;;;;;;5069879;28;20427;-49
2023/06/21 02:00:52;;;;;;;27.67;25.47;;;21.90;99.90;;;;;;5070112;28;20427;-51
2023/06/21 02:03:20;;;;;;;25.90;23.90;;;22.00;99.90;;;;;;5070402;28;20201;-48
2023/06/21 02:05:47;;;;;;;26.03;24.07;;;22.10;99.90;;;;;;5070051;28;20777;-49
2023/06/21 02:08:17;;;;;;;26.07;24.07;;;22.10;99.90;;;;;;5070131;28;21011;-46
2023/06/21 02:10:45;;;;;;;23.00;21.10;;;22.20;99.90;;;;;;5070014;28;20427;-44
2023/06/21 02:13:13;;;;;;;23.50;21.40;;;22.20;99.90;;;;;;5069967;28;20416;-46
2023/06/21 02:15:41;;;;;;;21.53;19.83;;;22.20;99.90;;;;;;5070071;28;20439;-48
2023/06/21 02:18:08;;;;;;;21.17;19.67;;;22.40;99.90;;;;;;5070111;28;20476;-43
2023/06/21 02:20:33;;;;;;;22.20;20.47;;;22.40;99.90;;;;;;5069984;28;20419;-46
2023/06/21 02:22:59;;;;;;;21.63;20.07;;;22.50;99.90;;;;;;5069822;28;21055;-46
2023/06/21 02:25:26;;;;;;;21.00;19.40;;;22.50;99.90;;;;;;5070379;28;20181;-46
2023/06/21 02:27:51;;;;;;;21.27;19.67;;;22.60;99.90;;;;;;5069974;28;20185;-45
2023/06/21 02:30:17;;;;;;;20.60;19.10;;;22.50;99.90;;;;;;5069848;28;21252;-45
2023/06/21 02:32:42;;;;;;;20.90;19.37;;;22.60;99.90;;;;;;5069907;28;20205;-45
2023/06/21 02:35:09;;;;;;;21.63;19.93;;;22.60;99.90;;;;;;5069831;28;20647;-46
2023/06/21 02:37:35;;;;;;;20.20;18.80;;;22.60;99.90;;;;;;5069855;28;20192;-44
2023/06/21 02:40:09;;;;;;;20.27;18.80;;;22.60;99.90;;;;;;5069770;28;20431;-47
2023/06/21 02:42:35;;;;;;;21.47;19.67;;;22.50;99.90;;;;;;5069339;28;20323;-46
2023/06/21 02:45:00;;;;;;;21.87;20.20;;;22.50;99.90;;;;;;5069636;28;20494;-45
2023/06/21 02:47:26;;;;;;;21.10;19.60;;;22.50;99.90;;;;;;5069485;28;20697;-46
2023/06/21 02:49:52;;;;;;;22.20;20.50;;;22.50;99.90;;;;;;5069537;28;20185;-49
2023/06/21 02:52:17;;;;;;;21.63;19.93;;;22.50;99.90;;;;;;5069256;28;20563;-46
2023/06/21 02:54:43;;;;;;;21.20;19.67;;;22.50;99.90;;;;;;5069457;28;20506;-47
2023/06/21 02:57:09;;;;;;;22.07;20.47;;;22.40;99.90;;;;;;5069036;28;20185;-45
2023/06/21 02:59:36;;;;;;;21.10;19.50;;;22.40;99.90;;;;;;5069675;28;20188;-46
2023/06/21 03:02:01;;;;;;;22.13;20.53;;;22.40;99.90;;;;;;5069170;28;20315;-45
2023/06/21 03:04:27;;;;;;;22.20;20.50;;;22.30;99.90;;;;;;5068933;28;21032;-44
2023/06/21 03:06:53;;;;;;;21.50;20.00;;;22.30;99.90;;;;;;5069165;28;20192;-45
2023/06/21 03:09:18;;;;;;;21.97;20.33;;;22.30;99.90;;;;;;5069438;28;20415;-49
2023/06/21 03:11:45;;;;;;;21.40;19.90;;;22.20;99.90;;;;;;5068639;28;20197;-47
2023/06/21 03:14:11;;;;;;;20.37;18.93;;;22.20;99.90;;;;;;5069077;28;20196;-43
2023/06/21 03:16:36;;;;;;;21.20;19.60;;;22.10;99.90;;;;;;5069252;28;20416;-43
2023/06/21 03:19:02;;;;;;;21.23;19.73;;;22.20;99.90;;;;;;5069005;28;20192;-47
2023/06/21 03:21:28;;;;;;;21.23;19.63;;;22.10;99.90;;;;;;5068784;28;20643;-45
2023/06/21 03:23:53;;;;;;;22.63;20.73;;;22.10;99.90;;;;;;5068883;28;20196;-49
2023/06/21 03:26:19;;;;;;;20.87;19.30;;;22.00;99.90;;;;;;5068621;28;20192;-45
2023/06/21 03:28:44;;;;;;;21.43;19.90;;;22.00;99.90;;;;;;5068879;28;20544;-47
2023/06/21 03:31:10;;;;;;;21.17;19.43;;;22.00;99.90;;;;;;5068657;28;20193;-49
2023/06/21 03:33:36;;;;;;;21.60;20.00;;;22.00;99.90;;;;;;5068782;28;20177;-49
2023/06/21 03:36:03;;;;;;;20.87;19.23;;;22.00;99.90;;;;;;5068570;28;20181;-44
2023/06/21 03:38:29;;;;;;;20.97;19.30;;;22.00;99.90;;;;;;5068755;28;20275;-46
2023/06/21 03:40:55;;;;;;;20.10;18.63;;;21.90;99.90;;;;;;5068565;28;20580;-46
2023/06/21 03:43:21;;;;;;;22.40;20.70;;;21.90;99.90;;;;;;5068367;28;20483;-45
2023/06/21 03:45:46;;;;;;;22.43;20.63;;;21.90;99.90;;;;;;5068814;28;20250;-46
2023/06/21 03:48:12;;;;;;;22.80;20.80;;;21.80;99.90;;;;;;5068544;28;20253;-47
2023/06/21 03:50:38;;;;;;;22.07;20.37;;;21.80;99.90;;;;;;5069011;28;20643;-47
2023/06/21 03:53:04;;;;;;;22.40;20.60;;;21.80;99.90;;;;;;5068669;28;20227;-45
2023/06/21 03:55:29;;;;;;;21.30;19.57;;;21.80;99.90;;;;;;5068312;28;20242;-45
2023/06/21 03:57:55;;;;;;;21.73;20.03;;;21.80;99.90;;;;;;5068377;28;20189;-43
2023/06/21 04:00:20;;;;;;;21.07;19.40;;;21.80;99.90;;;;;;5068343;28;20200;-46
2023/06/21 04:02:46;;;;;;;22.27;20.50;;;21.80;99.90;;;;;;5068235;28;20193;-47
2023/06/21 04:05:12;;;;;;;24.20;22.27;;;21.80;99.90;;;;;;5068143;28;20233;-48
2023/06/21 04:07:40;;;;;;;23.50;21.63;;;21.80;99.90;;;;;;5068354;28;20647;-50
2023/06/21 04:10:08;;;;;;;24.53;22.63;;;21.80;99.90;;;;;;5068487;28;20185;-46
2023/06/21 04:12:34;;;;;;;24.37;22.50;;;21.70;99.90;;;;;;5068115;28;20498;-44
2023/06/21 04:15:00;;;;;;;24.27;22.20;;;21.80;99.90;;;;;;5068293;28;20530;-46
2023/06/21 04:17:27;;;;;;;24.13;22.23;;;21.80;99.90;;;;;;5068271;28;20268;-43
2023/06/21 04:19:54;;;;;;;25.90;23.80;;;21.70;99.90;;;;;;5068966;28;20423;-48
2023/06/21 04:22:21;;;;;;;24.23;22.33;;;21.70;99.90;;;;;;5072268;28;20505;-43
2023/06/21 04:24:47;;;;;;;23.90;22.10;;;21.70;99.90;;;;;;5072388;28;20467;-47
2023/06/21 04:27:12;;;;;;;24.43;22.53;;;21.70;99.90;;;;;;5072237;28;20427;-48
2023/06/21 04:29:40;;;;;;;25.03;22.97;;;21.70;99.90;;;;;;5072263;28;20612;-46
2023/06/21 04:32:06;;;;;;;23.60;21.63;;;21.70;99.90;;;;;;5072069;28;20254;-47
2023/06/21 04:34:33;;;;;;;25.13;23.23;;;21.70;99.90;;;;;;5072050;28;20443;-44
2023/06/21 04:36:59;;;;;;;24.00;22.03;;;21.70;99.90;;;;;;5072507;28;20484;-45
2023/06/21 04:39:25;;;;;;;24.10;22.10;;;21.80;99.90;;;;;;5072021;28;20481;-46
2023/06/21 04:41:52;;;;;;;24.93;22.67;;;21.80;99.90;;;;;;5071965;28;20427;-46
2023/06/21 04:44:20;;;;;;;24.60;22.53;;;21.80;99.90;;;;;;5071441;28;20220;-46
2023/06/21 04:46:45;;;;;;;25.20;23.20;;;21.80;99.90;;;;;;5053846;28;20465;-44
2023/06/21 04:49:11;;;;;;;24.93;23.03;;;21.90;99.90;;;;;;5071891;28;20423;-43
2023/06/21 04:51:37;;;;;;;24.43;22.53;;;21.90;99.90;;;;;;5071680;28;20242;-47
2023/06/21 04:54:03;;;;;;;23.80;21.93;;;21.90;99.90;;;;;;5071594;28;20189;-46
2023/06/21 04:56:28;;;;;;;23.57;21.67;;;22.00;99.90;;;;;;5071723;28;20199;-44
2023/06/21 04:58:54;;;;;;;23.83;21.73;;;22.00;99.90;;;;;;5071442;28;20280;-43
2023/06/21 05:01:20;;;;;;;24.40;22.40;;;22.00;99.90;;;;;;5071796;28;20702;-49
2023/06/21 05:03:48;;;;;;;23.80;22.00;;;22.10;99.90;;;;;;5071615;28;20491;-48
2023/06/21 05:06:17;;;;;;;24.50;22.60;;;22.10;99.90;;;;;;5071466;28;20589;-43
2023/06/21 05:08:43;;;;;;;21.40;19.80;;;22.20;99.90;;;;;;5071361;28;20443;-44
2023/06/21 05:11:09;;;;;;;23.27;21.43;;;22.20;99.90;;;;;;5071332;28;20443;-43
2023/06/21 05:13:35;;;;;;;20.97;19.37;;;22.30;99.90;;;;;;5071360;28;20212;-46
2023/06/21 05:16:00;;;;;;;21.53;20.03;;;22.30;99.90;;;;;;5072040;28;20197;-46
2023/06/21 05:18:26;;;;;;;22.13;20.37;;;22.40;99.90;;;;;;5071236;28;20677;-45
2023/06/21 05:20:52;;;;;;;21.33;19.67;;;22.50;99.90;;;;;;5070802;28;20213;-48
2023/06/21 05:23:17;;;;;;;21.83;20.07;;;22.50;99.90;;;;;;5070882;28;20217;-49
2023/06/21 05:25:43;;;;;;;20.03;18.50;;;22.60;99.90;;;;;;5071143;28;20185;-44
2023/06/21 05:28:09;;;;;;;20.17;18.83;;;22.70;99.90;;;;;;5070948;28;20181;-51
2023/06/21 05:30:35;;;;;;;17.80;16.53;;;22.70;99.90;;;;;;5070821;28;20553;-49
2023/06/21 05:33:01;;;;;;;18.37;16.97;;;22.80;99.90;;;;;;5071133;28;20415;-52
2023/06/21 05:35:26;;;;;;;17.43;16.23;;;22.90;99.90;;;;;;5070719;28;20571;-47
2023/06/21 05:37:53;;;;;;;17.87;16.67;;;23.00;99.90;;;;;;5070834;28;20188;-49
2023/06/21 05:40:22;;;;;;;17.30;16.00;;;23.10;99.90;;;;;;5070850;28;20177;-50
2023/06/21 05:42:48;;;;;;;15.83;14.63;;;23.20;99.90;;;;;;5070724;28;20884;-47
2023/06/21 05:45:13;;;;;;;15.77;14.37;;;23.30;99.90;;;;;;5070611;28;20498;-49
2023/06/21 05:47:39;;;;;;;15.23;14.13;;;23.50;99.90;;;;;;5070709;28;20183;-48
2023/06/21 05:50:05;;;;;;;15.40;14.37;;;23.50;99.90;;;;;;5070455;28;20200;-49
2023/06/21 05:52:31;;;;;;;14.67;13.67;;;23.60;99.90;;;;;;5070616;28;20549;-47
2023/06/21 05:54:56;;;;;;;14.90;13.90;;;23.70;99.90;;;;;;5070463;28;20423;-49
2023/06/21 05:57:24;;;;;;;15.40;14.50;;;23.80;99.90;;;;;;5070826;28;20654;-49
2023/06/21 05:59:50;;;;;;;14.50;13.60;;;23.90;99.90;;;;;;5070301;28;20412;-45
2023/06/21 06:02:16;;;;;;;16.00;14.97;;;24.00;99.90;;;;;;5070508;28;20725;-46
2023/06/21 06:04:41;;;;;;;15.40;14.10;;;24.10;99.90;;;;;;5070020;28;20233;-46
2023/06/21 06:07:07;;;;;;;15.40;14.47;;;24.20;99.90;;;;;;5070611;28;20423;-48
2023/06/21 06:09:33;;;;;;;14.90;13.80;;;24.30;99.90;;;;;;5070952;28;20189;-46
2023/06/21 06:11:58;;;;;;;14.30;13.47;;;24.30;99.90;;;;;;5070248;28;20185;-46
2023/06/21 06:14:24;;;;;;;16.27;15.23;;;24.40;99.90;;;;;;5070003;28;20195;-48
2023/06/21 06:16:50;;;;;;;16.53;15.43;;;24.50;99.90;;;;;;5070073;28;20626;-47
2023/06/21 06:19:16;;;;;;;16.20;14.93;;;24.60;99.90;;;;;;5069879;28;20470;-48
2023/06/21 06:21:41;;;;;;;15.77;14.87;;;24.70;99.90;;;;;;5070124;28;20463;-47
2023/06/21 06:24:07;;;;;;;14.53;13.63;;;24.90;99.90;;;;;;5069877;28;20236;-47
2023/06/21 06:26:32;;;;;;;16.80;15.80;;;25.00;99.90;;;;;;5070040;28;20181;-49
2023/06/21 06:28:58;;;;;;;16.90;15.80;;;25.20;99.90;;;;;;5069680;28;20196;-52
2023/06/21 06:31:26;;;;;;;15.80;14.90;;;25.50;99.90;;;;;;5069764;28;20315;-49
2023/06/21 06:33:52;;;;;;;15.80;14.80;;;25.60;99.90;;;;;;5069658;28;20243;-50
2023/06/21 06:36:18;;;;;;;16.00;15.03;;;25.70;99.80;;;;;;5070140;28;20636;-48
2023/06/21 06:38:48;;;;;;;16.70;15.70;;;25.80;99.40;;;;;;5069540;28;20435;-51
2023/06/21 06:41:14;;;;;;;16.30;15.30;;;25.80;98.60;;;;;;5069683;28;20778;-48
2023/06/21 06:43:40;;;;;;;15.80;14.73;;;26.00;98.70;;;;;;5068860;28;20563;-49
2023/06/21 06:46:06;;;;;;;16.47;15.50;;;26.10;98.20;;;;;;5069155;28;20503;-47
2023/06/21 06:48:31;;;;;;;15.87;14.77;;;26.20;97.50;;;;;;5051362;28;20720;-48
2023/06/21 06:50:57;;;;;;;15.80;14.80;;;26.20;98.00;;;;;;5069392;28;20189;-50
2023/06/21 06:53:23;;;;;;;15.10;14.20;;;26.30;97.00;;;;;;5069351;28;20189;-44
2023/06/21 06:55:51;;;;;;;15.27;14.37;;;26.30;97.10;;;;;;5069316;28;20951;-53
2023/06/21 06:58:17;;;;;;;16.30;15.10;;;26.40;97.00;;;;;;5069324;28;20181;-52
2023/06/21 07:00:43;;;;;;;16.33;15.27;;;26.40;96.30;;;;;;5069164;28;20437;-45
2023/06/21 07:03:08;;;;;;;16.93;15.80;;;26.50;96.40;;;;;;5069116;28;20550;-49
2023/06/21 07:05:37;;;;;;;16.07;15.17;;;26.50;96.10;;;;;;5051276;28;20233;-50
2023/06/21 07:08:03;;;;;;;16.37;15.37;;;26.50;96.00;;;;;;5051137;28;20181;-50
2023/06/21 07:10:29;;;;;;;16.93;15.83;;;26.50;96.00;;;;;;5069186;28;20986;-49
2023/06/21 07:12:55;;;;;;;16.00;15.00;;;26.50;95.80;;;;;;5069288;28;20834;-50
2023/06/21 07:15:20;;;;;;;16.00;14.90;;;26.60;96.50;;;;;;5069177;28;20180;-50
2023/06/21 07:17:46;;;;;;;16.50;15.50;;;26.70;95.80;;;;;;5068873;28;20268;-47
2023/06/21 07:20:12;;;;;;;16.50;15.50;;;26.70;95.50;;;;;;5068895;28;20184;-49
2023/06/21 07:22:37;;;;;;;15.97;14.87;;;26.80;94.90;;;;;;5068815;28;20774;-51
2023/06/21 07:25:03;;;;;;;17.87;16.60;;;26.90;94.60;;;;;;5068721;28;20240;-47
2023/06/21 07:27:29;;;;;;;15.67;14.70;;;26.90;94.50;;;;;;5068756;28;20192;-50
2023/06/21 07:29:55;;;;;;;15.80;14.80;;;27.00;94.20;;;;;;5068572;28;20786;-44
2023/06/21 07:32:20;;;;;;;15.97;15.07;;;27.00;93.80;;;;;;5068838;28;20197;-50
2023/06/21 07:34:46;;;;;;;15.53;14.43;;;27.10;94.10;;;;;;5068710;28;20181;-50
2023/06/21 07:37:12;;;;;;;16.43;15.37;;;27.10;94.10;;;;;;5068745;28;20225;-50
2023/06/21 07:39:38;;;;;;;17.20;15.67;;;27.20;93.70;;;;;;5068787;28;20189;-48
2023/06/21 07:42:04;;;;;;;15.33;14.43;;;27.10;93.80;;;;;;5068664;28;20185;-47
2023/06/21 07:44:33;;;;;;;15.60;14.70;;;27.20;93.70;;;;;;5068560;28;20682;-50
2023/06/21 07:46:59;;;;;;;15.87;14.97;;;27.30;93.60;;;;;;5068431;28;20868;-54
2023/06/21 07:49:24;;;;;;;15.83;14.77;;;27.40;93.60;;;;;;5068495;28;20590;-51
2023/06/21 07:51:50;;;;;;;16.20;15.20;;;27.40;93.50;;;;;;5068491;28;20651;-49
2023/06/21 07:54:16;;;;;;;17.73;16.30;;;27.50;93.70;;;;;;5067836;28;20185;-49
2023/06/21 07:56:42;;;;;;;16.00;15.00;;;27.60;93.10;;;;;;5068404;28;20189;-48
2023/06/21 07:59:07;;;;;;;16.37;15.30;;;27.60;92.30;;;;;;5069149;28;20267;-49
2023/06/21 08:01:34;;;;;;;15.20;14.30;;;27.70;92.20;;;;;;5068296;28;21277;-46
2023/06/21 08:04:00;;;;;;;15.90;14.90;;;27.70;92.00;;;;;;5068911;28;20507;-54
2023/06/21 08:06:26;;;;;;;16.77;15.70;;;27.70;91.80;;;;;;5068098;28;21082;-51
2023/06/21 08:08:52;;;;;;;16.07;14.97;;;27.80;92.20;;;;;;5068372;28;20188;-49
2023/06/21 08:11:18;;;;;;;16.87;15.87;;;27.90;91.30;;;;;;5068319;28;20427;-50
2023/06/21 08:13:43;;;;;;;15.30;14.30;;;27.90;91.50;;;;;;5068558;28;20193;-46
2023/06/21 08:16:09;;;;;;;17.20;15.93;;;28.00;90.90;;;;;;5068286;28;20185;-47
2023/06/21 08:18:35;;;;;;;16.73;15.63;;;28.20;89.20;;;;;;5068245;28;20548;-52
2023/06/21 08:21:01;;;;;;;16.30;15.30;;;28.10;88.70;;;;;;5068200;28;20606;-49
2023/06/21 08:23:26;;;;;;;16.50;15.60;;;28.10;87.30;;;;;;5068240;28;20474;-49
2023/06/21 08:25:52;;;;;;;15.93;14.97;;;28.30;87.20;;;;;;5068440;28;20307;-48
2023/06/21 08:28:18;;;;;;;17.00;15.70;;;28.40;87.20;;;;;;5068384;28;20247;-48
2023/06/21 08:30:43;;;;;;;16.70;15.70;;;28.50;87.80;;;;;;5068062;28;20193;-48
2023/06/21 08:33:09;;;;;;;16.73;15.63;;;28.50;88.50;;;;;;5068066;28;20189;-46
2023/06/21 08:35:36;;;;;;;16.70;15.60;;;28.50;89.20;;;;;;5068350;28;20185;-53
2023/06/21 08:38:02;;;;;;;16.53;15.53;;;28.60;88.90;;;;;;5068139;28;20439;-46
2023/06/21 08:40:32;;;;;;;17.07;16.07;;;28.80;87.80;;;;;;5068230;28;20419;-47
2023/06/21 08:42:58;;;;;;;16.37;15.37;;;28.90;87.40;;;;;;5067901;28;20208;-50
2023/06/21 08:45:24;;;;;;;16.80;15.80;;;28.90;86.40;;;;;;5067759;28;20426;-50
2023/06/21 08:47:51;;;;;;;17.80;16.60;;;29.10;86.00;;;;;;5068293;28;20423;-50
2023/06/21 08:50:21;;;;;;;16.97;15.87;;;29.10;85.70;;;;;;5067760;28;20434;-49
2023/06/21 08:52:49;;;;;;;17.10;16.00;;;29.30;85.30;;;;;;5049950;28;20427;-46
2023/06/21 08:55:18;;;;;;;16.97;15.87;;;29.40;83.60;;;;;;5067838;28;20426;-49
2023/06/21 08:57:53;;;;;;;16.60;15.60;;;29.50;82.10;;;;;;5068230;28;20415;-44
2023/06/21 09:00:41;;;;;;;16.13;15.23;;;29.60;82.60;;;;;;5067799;28;20418;-48
2023/06/21 09:03:12;;;;;;;15.67;14.57;;;29.80;82.30;;;;;;5067603;28;20474;-46
2023/06/21 09:05:53;;;;;;;17.47;16.37;;;30.10;81.60;;;;;;5068148;28;20471;-47
2023/06/21 09:08:19;;;;;;;16.67;15.67;;;30.10;80.80;;;;;;5071827;28;20966;-49
2023/06/21 09:10:50;;;;;;;16.37;15.27;;;30.30;80.10;;;;;;5071292;28;20936;-50
2023/06/21 09:13:18;;;;;;;16.70;15.60;;;30.30;78.50;;;;;;5071293;28;20447;-47
2023/06/21 09:15:45;;;;;;;16.93;15.63;;;30.20;79.30;;;;;;5071240;28;20831;-48
2023/06/21 09:18:12;;;;;;;17.30;16.20;;;30.30;78.80;;;;;;5071371;28;20506;-51
2023/06/21 09:20:38;;;;;;;16.40;15.40;;;30.40;77.50;;;;;;5071130;28;20871;-51
2023/06/21 09:23:04;;;;;;;17.27;16.07;;;30.60;79.40;;;;;;5071222;28;21020;-49
2023/06/21 09:25:29;;;;;;;17.30;16.20;;;30.90;77.40;;;;;;5071198;28;20429;-45
2023/06/21 09:27:55;;;;;;;17.63;16.57;;;31.20;75.00;;;;;;5070900;28;20233;-46
2023/06/21 09:30:22;;;;;;;16.47;15.47;;;31.60;72.60;;;;;;5071148;28;20189;-46
2023/06/21 09:32:48;;;;;;;17.70;16.70;;;31.90;70.50;;;;;;5071110;28;20430;-49
2023/06/21 09:35:14;;;;;;;16.80;15.80;;;32.30;68.20;;;;;;5070948;28;20455;-48
2023/06/21 09:37:40;;;;;;;16.63;15.53;;;32.70;64.60;;;;;;5070988;28;20458;-52
2023/06/21 09:40:07;;;;;;;16.20;15.30;;;32.70;61.50;;;;;;5070888;28;20551;-52
2023/06/21 09:42:38;;;;;;;16.90;15.90;;;32.70;61.10;;;;;;5070648;28;20423;-47
2023/06/21 09:45:11;;;;;;;16.90;15.80;;;33.20;61.60;;;;;;5070789;28;20498;-45
2023/06/21 09:47:41;;;;;;;17.67;16.67;;;33.50;59.30;;;;;;5070806;28;20491;-44
2023/06/21 09:50:07;;;;;;;16.60;15.60;;;33.90;58.30;;;;;;5070575;28;20487;-48
2023/06/21 09:52:33;;;;;;;17.10;16.10;;;34.30;56.20;;;;;;5070638;28;20420;-48
2023/06/21 09:54:59;;;;;;;17.13;16.13;;;34.70;53.80;;;;;;5071077;28;20516;-49
2023/06/21 09:57:32;;;;;;;16.20;15.30;;;35.00;52.10;;;;;;5071333;28;20185;-48
2023/06/21 10:00:05;;;;;;;16.97;15.93;;;35.00;51.80;;;;;;5070572;28;20201;-48
2023/06/21 10:02:38;;;;;;;16.67;15.70;;;35.30;50.70;;;;;;5070361;28;20777;-48
2023/06/21 10:05:04;;;;;;;18.43;17.40;;;35.70;49.40;;;;;;5070005;28;20566;-49
2023/06/21 10:07:30;;;;;;;17.40;16.40;;;36.20;47.70;;;;;;5070372;28;20431;-48
2023/06/21 10:09:55;;;;;;;16.97;16.00;;;36.50;46.90;;;;;;5070268;28;20435;-53
2023/06/21 10:12:22;;;;;;;16.33;15.40;;;36.70;45.80;;;;;;5070139;28;20669;-49
2023/06/21 10:14:50;;;;;;;16.90;15.90;;;37.20;43.00;;;;;;5070185;28;20639;-48
2023/06/21 10:17:17;;;;;;;16.63;15.73;;;37.50;42.20;;;;;;5069355;28;20431;-50
2023/06/21 10:19:44;;;;;;;16.57;15.60;;;37.40;39.20;;;;;;5070049;28;20424;-46
2023/06/21 10:22:18;;;;;;;16.03;15.03;;;37.20;40.30;;;;;;5069855;28;20462;-49
2023/06/21 10:24:47;;;;;;;17.33;16.23;;;37.40;39.70;;;;;;5070199;28;20672;-49
2023/06/21 10:27:14;;;;;;;16.93;16.00;;;37.70;38.90;;;;;;5070069;28;20419;-47
2023/06/21 10:29:42;;;;;;;15.30;14.50;;;37.90;36.70;;;;;;5069806;28;20420;-44
2023/06/21 10:32:08;;;;;;;17.80;16.90;;;38.20;37.10;;;;;;5069841;28;20971;-50
2023/06/21 10:34:55;;;;;;;18.10;17.10;;;38.30;35.50;;;;;;5069684;28;20439;-46
2023/06/21 10:37:48;;;;;;;17.87;16.90;;;38.60;35.30;;;;;;5069698;28;20756;-48
2023/06/21 10:40:14;;;;;;;17.60;16.70;;;38.90;34.10;;;;;;5069668;28;20423;-46
2023/06/21 10:42:42;;;;;;;17.13;16.23;;;38.60;34.40;;;;;;5069529;28;20419;-46
2023/06/21 10:45:11;;;;;;;18.00;17.00;;;38.90;34.10;;;;;;5069556;28;20466;-47
2023/06/21 10:47:38;;;;;;;17.50;16.60;;;39.10;33.90;;;;;;5069538;28;20415;-45
2023/06/21 10:50:05;;;;;;;18.33;17.30;;;39.40;31.20;;;;;;5069652;28;20511;-47
2023/06/21 10:52:31;;;;;;;17.20;16.30;;;39.40;31.30;;;;;;5069299;28;20439;-49
2023/06/21 10:54:58;;;;;;;17.90;17.00;;;39.20;31.70;;;;;;5069507;28;20424;-52
2023/06/21 10:57:28;;;;;;;17.87;16.87;;;39.40;30.70;;;;;;5069320;28;20178;-51
2023/06/21 11:00:02;;;;;;;17.93;17.03;;;39.50;31.30;;;;;;5069462;28;20496;-49
2023/06/21 11:02:28;;;;;;;18.83;17.83;;;39.40;30.00;;;;;;5069090;28;20412;-45
2023/06/21 11:05:23;;;;;;;18.30;17.30;;;39.40;29.90;;;;;;5068886;28;20509;-48
2023/06/21 11:07:56;;;;;;;17.00;16.10;;;39.50;29.90;;;;;;5068953;28;20612;-47
2023/06/21 11:10:49;;;;;;;16.97;16.07;;;39.70;29.90;;;;;;5069403;28;20443;-49
2023/06/21 11:13:17;;;;;;;17.50;16.60;;;39.70;28.90;;;;;;5069195;28;20459;-47
2023/06/21 11:15:46;;;;;;;17.43;16.53;;;39.90;29.10;;;;;;5069305;28;20415;-45
2023/06/21 11:18:19;;;;;;;17.80;16.83;;;39.70;28.70;;;;;;5068859;28;20411;-48
2023/06/21 11:20:55;;;;;;;17.43;16.53;;;39.40;28.80;;;;;;5068983;28;20514;-51
2023/06/21 11:23:22;;;;;;;18.53;17.50;;;39.20;28.90;;;;;;5068556;28;20545;-48
2023/06/21 11:26:14;;;;;;;18.67;17.60;;;38.90;29.00;;;;;;5068902;28;20415;-47
2023/06/21 11:28:49;;;;;;;18.77;17.77;;;38.70;29.70;;;;;;5068515;28;20907;-48
2023/06/21 11:31:16;;;;;;;17.60;16.70;;;38.90;30.40;;;;;;5068700;28;20435;-44
2023/06/21 11:33:53;;;;;;;17.37;16.43;;;39.20;29.70;;;;;;5068501;28;20685;-49
2023/06/21 11:36:27;;;;;;;18.23;17.13;;;39.90;28.70;;;;;;5068612;28;20512;-50
2023/06/21 11:39:04;;;;;;;18.23;17.20;;;39.70;29.10;;;;;;5068747;28;20426;-48
2023/06/21 11:41:36;;;;;;;18.13;17.13;;;39.40;29.00;;;;;;5068668;28;20431;-48
2023/06/21 11:44:02;;;;;;;19.30;18.10;;;39.20;28.70;;;;;;5068412;28;20470;-48
2023/06/21 11:46:31;;;;;;;18.13;17.03;;;38.70;29.40;;;;;;5068581;28;20442;-47
2023/06/21 11:49:00;;;;;;;17.80;16.87;;;38.90;29.30;;;;;;5068715;28;20192;-45
2023/06/21 11:51:28;;;;;;;17.30;16.40;;;38.90;29.30;;;;;;5068810;28;20431;-45
2023/06/21 11:53:55;;;;;;;18.00;17.07;;;38.90;28.80;;;;;;5068221;28;20427;-45
2023/06/21 11:56:21;;;;;;;18.40;17.30;;;38.50;29.70;;;;;;5068534;28;20431;-46
2023/06/21 11:58:49;;;;;;;18.40;17.40;;;38.70;29.00;;;;;;5068521;28;20538;-47
2023/06/21 12:01:15;;;;;;;18.00;17.00;;;38.40;29.70;;;;;;5068469;28;20302;-46
2023/06/21 12:03:41;;;;;;;18.87;17.93;;;38.50;29.60;;;;;;5068149;28;20475;-46
2023/06/21 12:06:07;;;;;;;18.10;17.00;;;38.70;30.00;;;;;;5068438;28;20232;-46
2023/06/21 12:08:35;;;;;;;18.57;17.67;;;39.20;29.70;;;;;;5068222;28;20188;-46
2023/06/21 12:11:03;;;;;;;18.10;17.10;;;39.70;29.00;;;;;;5068320;28;20484;-45
2023/06/21 12:13:30;;;;;;;18.13;17.13;;;40.00;28.00;;;;;;5068125;28;20511;-48
2023/06/21 12:15:58;;;;;;;18.00;17.00;;;39.00;27.40;;;;;;5068376;28;20514;-49
2023/06/21 12:18:25;;;;;;;18.10;17.10;;;39.10;29.00;;;;;;5068121;28;20913;-47
2023/06/21 12:20:54;;;;;;;17.87;16.97;;;39.70;28.40;;;;;;5068409;28;20442;-49
2023/06/21 12:23:21;;;;;;;16.83;15.93;;;40.00;28.20;;;;;;5068056;28;20953;-44
2023/06/21 12:25:58;;;;;;;18.87;17.87;;;40.10;27.00;;;;;;5068160;28;20427;-49
2023/06/21 12:28:25;;;;;;;18.03;17.07;;;40.40;27.20;;;;;;5068328;28;20407;-50
2023/06/21 12:30:56;;;;;;;18.97;17.97;;;40.50;27.40;;;;;;5068161;28;20431;-50